Terminal Aerodrome Forecast
Issued by NWS Grand Forks, ND

Home | Current Version | Previous Version | Graphics & Text | Print | Product List | Glossary On
Versions: 1 2 3 4 5 6 7 8 9 10 11 12 13 14 15 16
735
FTUS43 KFGF 251138
TAFGFK
TAF
KGFK 251138Z 2512/2612 28003KT P6SM FEW250
     FM251900 18007KT P6SM SKC
     FM260300 09004KT P6SM SCT090
     FM261000 VRB03KT P6SM BKN100=

USA.gov is the U.S. government's official web portal to all federal, state and local government web resources and services.